createdAt,value
2022-07-31T00:00:15.266Z,18.51
2022-07-31T00:02:41.907Z,18.46
2022-07-31T00:05:08.982Z,18.42
2022-07-31T00:07:35.520Z,18.40
2022-07-31T00:10:02.144Z,18.38
2022-07-31T00:12:28.970Z,18.35
2022-07-31T00:14:55.518Z,18.36
2022-07-31T00:17:22.159Z,18.35
2022-07-31T00:19:49.119Z,18.32
2022-07-31T00:22:15.734Z,18.32
2022-07-31T00:24:42.259Z,18.28
2022-07-31T00:27:10.749Z,18.27
2022-07-31T00:29:38.160Z,18.25
2022-07-31T00:32:05.129Z,18.25
2022-07-31T00:34:32.162Z,18.23
2022-07-31T00:36:58.720Z,18.19
2022-07-31T00:39:25.267Z,18.18
2022-07-31T00:41:51.834Z,18.17
2022-07-31T00:44:18.418Z,18.16
2022-07-31T00:46:45.170Z,18.14
2022-07-31T00:49:11.766Z,18.11
2022-07-31T00:51:39.615Z,18.10
2022-07-31T00:54:08.477Z,18.09
2022-07-31T00:56:35.534Z,18.08
2022-07-31T00:59:03.271Z,18.03
2022-07-31T01:01:30.815Z,18.02
2022-07-31T01:03:57.943Z,18.03
2022-07-31T01:06:24.543Z,18.01
2022-07-31T01:08:51.030Z,17.99
2022-07-31T01:11:21.760Z,17.99
2022-07-31T01:13:52.369Z,17.98
2022-07-31T01:16:19.783Z,18.01
2022-07-31T01:18:47.853Z,18.00
2022-07-31T01:21:20.933Z,18.00
2022-07-31T01:23:55.349Z,17.98
2022-07-31T01:26:40.719Z,17.97
2022-07-31T01:29:16.451Z,18.00
2022-07-31T01:31:48.056Z,18.02
2022-07-31T01:34:24.438Z,18.03
2022-07-31T01:37:00.496Z,18.05
2022-07-31T01:39:33.691Z,18.07
2022-07-31T01:42:04.050Z,18.06
2022-07-31T01:44:36.446Z,18.08
2022-07-31T01:47:03.857Z,18.09
2022-07-31T01:49:32.791Z,18.09
2022-07-31T01:52:04.403Z,18.09
2022-07-31T01:54:33.970Z,18.10
2022-07-31T01:57:03.396Z,18.13
2022-07-31T01:59:34.126Z,18.14
2022-07-31T02:02:04.648Z,18.17
2022-07-31T02:04:33.812Z,18.20
2022-07-31T02:07:04.117Z,18.21
2022-07-31T02:09:33.378Z,18.22
2022-07-31T02:12:01.063Z,18.26
2022-07-31T02:14:29.007Z,18.27
2022-07-31T02:16:56.267Z,18.31
2022-07-31T02:19:24.625Z,18.32
2022-07-31T02:21:51.302Z,18.33
2022-07-31T02:24:18.174Z,18.32
2022-07-31T02:26:47.127Z,18.31
2022-07-31T02:29:20.015Z,18.31
2022-07-31T02:32:09.377Z,18.32
2022-07-31T02:34:36.324Z,18.33
2022-07-31T02:37:04.269Z,18.33
2022-07-31T02:39:33.872Z,18.35
2022-07-31T02:42:02.052Z,18.32
2022-07-31T02:44:32.241Z,18.32
2022-07-31T02:47:02.398Z,18.32
2022-07-31T02:49:30.629Z,18.30
2022-07-31T02:51:57.735Z,18.30
2022-07-31T02:54:26.043Z,18.28
2022-07-31T02:56:53.907Z,18.29
2022-07-31T02:59:22.115Z,18.29
2022-07-31T03:01:48.726Z,18.30
2022-07-31T03:04:15.474Z,18.29
2022-07-31T03:06:42.007Z,18.27
2022-07-31T03:09:08.589Z,18.28
2022-07-31T03:11:35.887Z,18.27
2022-07-31T03:14:03.911Z,18.26
2022-07-31T03:16:31.982Z,18.24
2022-07-31T03:18:58.538Z,18.24
2022-07-31T03:21:25.690Z,18.23
2022-07-31T03:23:52.802Z,18.22
2022-07-31T03:26:19.671Z,18.21
2022-07-31T03:28:46.339Z,18.21
2022-07-31T03:31:12.930Z,18.20
2022-07-31T03:33:39.447Z,18.20
2022-07-31T03:36:06.209Z,18.20
2022-07-31T03:38:39.119Z,18.19
2022-07-31T03:41:09.683Z,18.18
2022-07-31T03:43:43.732Z,18.20
2022-07-31T03:46:16.202Z,18.19
2022-07-31T03:48:42.742Z,18.21
2022-07-31T03:51:09.615Z,18.22
2022-07-31T03:53:36.516Z,18.23
2022-07-31T03:56:06.386Z,18.24
2022-07-31T03:58:33.313Z,18.24
2022-07-31T04:01:00.147Z,18.26
2022-07-31T04:03:32.782Z,18.26
2022-07-31T04:05:59.328Z,18.27
2022-07-31T04:08:26.048Z,18.28
2022-07-31T04:10:52.618Z,18.30
2022-07-31T04:13:19.139Z,18.30
2022-07-31T04:15:45.683Z,18.32
2022-07-31T04:18:12.211Z,18.31
2022-07-31T04:20:38.751Z,18.29
2022-07-31T04:23:07.177Z,18.30
2022-07-31T04:25:33.833Z,18.32
2022-07-31T04:28:01.392Z,18.30
2022-07-31T04:30:27.952Z,18.29
2022-07-31T04:32:54.577Z,18.30
2022-07-31T04:35:22.331Z,18.29
2022-07-31T04:37:48.942Z,18.30
2022-07-31T04:40:15.985Z,18.28
2022-07-31T04:42:42.554Z,18.25
2022-07-31T04:45:09.671Z,18.27
2022-07-31T04:47:37.133Z,18.27
2022-07-31T04:50:04.857Z,18.25
2022-07-31T04:52:31.356Z,18.25
2022-07-31T04:54:57.881Z,18.27
2022-07-31T04:57:24.369Z,18.27
2022-07-31T05:00:00.302Z,18.28
2022-07-31T05:02:28.347Z,18.29
2022-07-31T05:04:56.855Z,18.32
2022-07-31T05:07:25.934Z,18.29
2022-07-31T05:09:55.948Z,18.29
2022-07-31T05:12:22.471Z,18.32
2022-07-31T05:14:49.008Z,18.34
2022-07-31T05:17:15.536Z,18.33
2022-07-31T05:19:42.039Z,18.36
2022-07-31T05:22:08.959Z,18.33
2022-07-31T05:24:35.830Z,18.32
2022-07-31T05:27:02.993Z,18.29
2022-07-31T05:29:30.305Z,18.24
2022-07-31T05:32:00.204Z,18.22
2022-07-31T05:34:36.257Z,18.20
2022-07-31T05:37:03.508Z,18.18
2022-07-31T05:39:30.646Z,18.13
2022-07-31T05:41:57.328Z,18.08
2022-07-31T05:44:24.534Z,18.03
2022-07-31T05:49:17.616Z,17.96
2022-07-31T05:51:45.247Z,17.98
2022-07-31T05:54:11.804Z,17.96
2022-07-31T05:56:38.657Z,17.95
2022-07-31T05:59:05.228Z,17.94
2022-07-31T06:01:31.824Z,17.92
2022-07-31T06:03:58.476Z,17.92
2022-07-31T06:06:25.015Z,17.90
2022-07-31T06:08:51.633Z,17.91
2022-07-31T06:11:18.202Z,17.91
2022-07-31T06:13:44.901Z,17.88
2022-07-31T06:16:13.728Z,17.87
2022-07-31T06:18:40.667Z,17.85
2022-07-31T06:21:07.202Z,17.85
2022-07-31T06:23:33.873Z,17.81
2022-07-31T06:26:00.895Z,17.76
2022-07-31T06:28:35.370Z,17.66
2022-07-31T06:31:21.683Z,17.57
2022-07-31T06:33:49.723Z,17.52
2022-07-31T06:36:17.378Z,17.49
2022-07-31T06:38:43.917Z,17.53
2022-07-31T06:41:10.614Z,17.59
2022-07-31T06:43:37.530Z,17.63
2022-07-31T06:46:04.133Z,17.68
2022-07-31T06:48:32.093Z,17.74
2022-07-31T06:53:45.118Z,17.84
2022-07-31T06:56:11.821Z,17.90
2022-07-31T06:58:38.344Z,17.93
2022-07-31T07:01:04.958Z,17.97
2022-07-31T07:03:31.523Z,18.00
2022-07-31T07:05:58.057Z,18.04
2022-07-31T07:08:25.165Z,18.10
2022-07-31T07:10:51.986Z,18.17
2022-07-31T07:13:18.534Z,18.23
2022-07-31T07:15:45.038Z,18.31
2022-07-31T07:18:11.839Z,18.40
2022-07-31T07:20:38.758Z,18.47
2022-07-31T07:23:05.307Z,18.54
2022-07-31T07:25:32.002Z,18.61
2022-07-31T07:27:58.988Z,18.68
2022-07-31T07:30:28.531Z,18.76
2022-07-31T07:32:55.412Z,18.85
2022-07-31T07:35:22.237Z,18.92
2022-07-31T07:37:49.030Z,18.99
2022-07-31T07:40:17.021Z,19.04
2022-07-31T07:42:44.101Z,19.09
2022-07-31T07:45:11.142Z,19.13
2022-07-31T07:47:53.630Z,19.10
2022-07-31T07:50:26.964Z,19.10
2022-07-31T07:52:55.907Z,19.12
2022-07-31T07:55:22.447Z,19.12
2022-07-31T07:57:49.051Z,19.14
2022-07-31T08:00:16.279Z,19.16
2022-07-31T08:02:44.876Z,19.16
2022-07-31T08:05:29.617Z,19.16
2022-07-31T08:07:56.163Z,19.17
2022-07-31T08:10:22.738Z,19.18
2022-07-31T08:12:50.378Z,19.23
2022-07-31T08:15:16.929Z,19.29
2022-07-31T08:17:43.465Z,19.36
2022-07-31T08:20:10.220Z,19.39
2022-07-31T08:22:36.795Z,19.48
2022-07-31T08:25:05.315Z,19.54
2022-07-31T08:27:39.475Z,19.60
2022-07-31T08:30:08.154Z,19.67
2022-07-31T08:32:35.028Z,19.73
2022-07-31T08:35:01.741Z,19.79
2022-07-31T08:37:52.206Z,19.86
2022-07-31T08:40:17.941Z,19.95
2022-07-31T08:42:46.087Z,20.04
2022-07-31T08:45:13.998Z,20.11
2022-07-31T08:47:42.239Z,20.20
2022-07-31T08:50:12.126Z,20.23
2022-07-31T08:52:42.734Z,20.24
2022-07-31T08:55:09.662Z,20.26
2022-07-31T08:57:37.072Z,20.27
2022-07-31T09:00:09.874Z,20.29
2022-07-31T09:02:39.293Z,20.31
2022-07-31T09:05:06.341Z,20.32
2022-07-31T09:07:32.928Z,20.26
2022-07-31T09:09:59.451Z,20.23
2022-07-31T09:12:34.801Z,20.23
2022-07-31T09:15:01.858Z,20.18
2022-07-31T09:17:35.760Z,20.08
2022-07-31T09:20:04.479Z,20.03
2022-07-31T09:22:31.925Z,19.97
2022-07-31T09:25:12.162Z,19.89
2022-07-31T09:27:39.139Z,19.79
2022-07-31T09:30:07.494Z,19.75
2022-07-31T09:32:34.179Z,19.71
2022-07-31T09:35:12.218Z,19.70
2022-07-31T09:37:40.183Z,19.71
2022-07-31T09:40:08.533Z,19.72
2022-07-31T09:42:45.553Z,19.77
2022-07-31T09:45:23.870Z,19.81
2022-07-31T09:48:08.551Z,19.89
2022-07-31T09:50:52.647Z,19.94
2022-07-31T09:53:19.798Z,20.03
2022-07-31T09:55:53.661Z,20.09
2022-07-31T09:58:21.330Z,20.17
2022-07-31T10:00:51.851Z,20.26
2022-07-31T10:03:19.619Z,20.36
2022-07-31T10:05:47.599Z,20.36
2022-07-31T10:08:15.050Z,20.43
2022-07-31T10:10:45.965Z,20.52
2022-07-31T10:13:18.082Z,20.58
2022-07-31T10:15:48.757Z,20.62
2022-07-31T10:18:35.676Z,20.61
2022-07-31T10:21:05.520Z,20.60
2022-07-31T10:23:39.080Z,20.70
2022-07-31T10:26:05.644Z,20.71
2022-07-31T10:28:32.654Z,20.73
2022-07-31T10:30:59.499Z,20.73
2022-07-31T10:33:43.679Z,20.73
2022-07-31T10:36:19.896Z,20.73
2022-07-31T10:39:01.631Z,20.75
2022-07-31T10:41:56.074Z,20.81
2022-07-31T10:45:02.911Z,20.79
2022-07-31T10:47:29.500Z,20.76
2022-07-31T10:49:56.019Z,20.83
2022-07-31T10:52:34.876Z,20.90
2022-07-31T10:55:02.084Z,20.96
2022-07-31T10:57:34.403Z,21.00
2022-07-31T11:00:12.074Z,21.02
2022-07-31T11:02:38.923Z,21.06
2022-07-31T11:05:21.561Z,21.13
2022-07-31T11:07:59.210Z,21.14
2022-07-31T11:10:25.792Z,21.17
2022-07-31T11:13:02.559Z,21.16
2022-07-31T11:15:29.182Z,21.27
2022-07-31T11:18:21.823Z,21.41
2022-07-31T11:20:46.854Z,21.57
2022-07-31T11:23:16.777Z,21.74
2022-07-31T11:25:46.688Z,21.89
2022-07-31T11:28:24.619Z,22.09
2022-07-31T11:31:02.203Z,22.31
2022-07-31T11:33:42.157Z,22.51
2022-07-31T11:36:21.462Z,22.55
2022-07-31T11:38:50.463Z,22.59
2022-07-31T11:41:22.003Z,22.63
2022-07-31T11:43:51.291Z,22.54
2022-07-31T11:46:29.925Z,22.49
2022-07-31T11:48:57.747Z,22.48
2022-07-31T11:51:25.528Z,22.42
2022-07-31T11:53:57.286Z,22.35
2022-07-31T11:56:25.995Z,22.29
2022-07-31T11:58:57.675Z,22.18
2022-07-31T12:01:29.363Z,22.03
2022-07-31T12:04:08.400Z,21.84
2022-07-31T12:06:36.533Z,21.65
2022-07-31T12:09:03.790Z,21.57
2022-07-31T12:11:30.510Z,21.54
2022-07-31T12:13:57.467Z,21.57
2022-07-31T12:16:25.315Z,21.62
2022-07-31T12:18:59.181Z,21.70
2022-07-31T12:21:37.090Z,21.76
2022-07-31T12:24:14.486Z,21.75
2022-07-31T12:26:48.951Z,21.70
2022-07-31T12:29:15.467Z,21.68
2022-07-31T12:31:50.156Z,21.66
2022-07-31T12:34:38.312Z,21.60
2022-07-31T12:37:12.877Z,21.57
2022-07-31T12:39:59.983Z,21.51
2022-07-31T12:42:37.573Z,21.40
2022-07-31T12:45:18.211Z,21.31
2022-07-31T12:47:52.469Z,21.21
2022-07-31T12:50:23.569Z,21.18
2022-07-31T12:52:50.519Z,21.12
2022-07-31T12:55:17.835Z,21.01
2022-07-31T12:57:51.577Z,20.92
2022-07-31T13:00:24.085Z,20.91
2022-07-31T13:02:52.012Z,20.86
2022-07-31T13:05:19.074Z,20.82
2022-07-31T13:07:45.799Z,20.76
2022-07-31T13:10:19.859Z,20.76
2022-07-31T13:12:52.167Z,20.75
2022-07-31T13:15:22.436Z,20.66
2022-07-31T13:17:50.418Z,20.64
2022-07-31T13:20:17.558Z,20.60
2022-07-31T13:22:44.121Z,20.56
2022-07-31T13:25:10.866Z,20.56
2022-07-31T13:27:37.505Z,20.60
2022-07-31T13:30:04.880Z,20.64
2022-07-31T13:32:31.861Z,20.65
2022-07-31T13:35:26.363Z,20.66
2022-07-31T13:37:46.953Z,20.64
2022-07-31T13:40:14.149Z,20.64
2022-07-31T13:42:40.673Z,20.58
2022-07-31T13:45:08.537Z,20.55
2022-07-31T13:47:51.029Z,20.51
2022-07-31T13:50:19.116Z,20.58
2022-07-31T13:52:45.712Z,20.69
2022-07-31T13:55:12.234Z,20.77
2022-07-31T13:57:38.761Z,20.89
2022-07-31T14:00:06.235Z,21.01
2022-07-31T14:02:32.927Z,21.17
2022-07-31T14:04:59.502Z,21.32
2022-07-31T14:07:45.084Z,21.51
2022-07-31T14:10:17.131Z,21.63
2022-07-31T14:12:46.556Z,21.84
2022-07-31T14:15:13.114Z,22.07
2022-07-31T14:17:40.250Z,22.27
2022-07-31T14:20:07.284Z,22.38
2022-07-31T14:22:33.801Z,22.44
2022-07-31T14:25:00.594Z,22.40
2022-07-31T14:27:27.142Z,22.31
2022-07-31T14:29:53.690Z,22.17
2022-07-31T14:32:21.987Z,21.92
2022-07-31T14:34:51.677Z,21.77
2022-07-31T14:37:18.864Z,21.60
2022-07-31T14:39:45.446Z,21.44
2022-07-31T14:42:12.458Z,21.27
2022-07-31T14:44:41.846Z,21.15
2022-07-31T14:47:09.819Z,21.01
2022-07-31T14:50:09.849Z,20.96
2022-07-31T14:52:23.910Z,20.85
2022-07-31T14:54:50.445Z,20.77
2022-07-31T14:57:20.217Z,20.58
2022-07-31T14:59:50.042Z,20.44
2022-07-31T15:02:21.821Z,20.27
2022-07-31T15:04:49.028Z,20.22
2022-07-31T15:10:05.848Z,20.14
2022-07-31T15:12:32.621Z,20.21
2022-07-31T15:14:59.343Z,20.30
2022-07-31T15:17:26.122Z,20.80
2022-07-31T15:19:52.717Z,21.13
2022-07-31T15:22:19.551Z,21.80
2022-07-31T15:24:48.773Z,22.02
2022-07-31T15:27:22.147Z,21.88
2022-07-31T15:30:00.728Z,21.96
2022-07-31T15:32:33.803Z,22.13
2022-07-31T15:35:00.337Z,21.99
2022-07-31T15:37:26.900Z,21.93
2022-07-31T15:40:02.941Z,21.83
2022-07-31T15:42:37.162Z,21.69
2022-07-31T15:45:04.309Z,21.57
2022-07-31T15:47:30.831Z,21.49
2022-07-31T15:49:57.397Z,21.41
2022-07-31T15:52:24.193Z,21.36
2022-07-31T15:54:51.665Z,21.31
2022-07-31T15:57:21.197Z,21.32
2022-07-31T15:59:48.671Z,21.26
2022-07-31T16:02:15.465Z,21.20
2022-07-31T16:04:52.793Z,21.12
2022-07-31T16:08:32.838Z,21.05
2022-07-31T16:10:16.540Z,21.02
2022-07-31T16:12:49.711Z,20.95
2022-07-31T16:15:17.066Z,20.88
2022-07-31T16:17:44.832Z,20.84
2022-07-31T16:20:25.790Z,20.74
2022-07-31T16:22:58.300Z,20.68
2022-07-31T16:25:25.893Z,20.64
2022-07-31T16:27:52.663Z,20.60
2022-07-31T16:30:19.269Z,20.55
2022-07-31T16:32:45.864Z,20.52
2022-07-31T16:35:12.824Z,20.51
2022-07-31T16:37:50.137Z,20.47
2022-07-31T16:40:28.533Z,20.45
2022-07-31T16:43:49.333Z,20.44
2022-07-31T16:45:52.402Z,20.42
2022-07-31T16:48:19.480Z,20.40
2022-07-31T16:50:53.216Z,20.39
2022-07-31T16:54:10.533Z,20.41
2022-07-31T16:56:07.331Z,20.40
2022-07-31T16:58:34.781Z,20.43
2022-07-31T17:01:03.937Z,20.45
2022-07-31T17:03:58.643Z,20.44
2022-07-31T17:06:17.537Z,20.44
2022-07-31T17:08:44.073Z,20.47
2022-07-31T17:11:10.626Z,20.48
2022-07-31T17:13:37.137Z,20.50
2022-07-31T17:16:03.950Z,20.56
2022-07-31T17:18:30.483Z,20.60
2022-07-31T17:20:57.123Z,20.60
2022-07-31T17:23:43.629Z,20.60
2022-07-31T17:26:20.833Z,20.58
2022-07-31T17:28:48.561Z,20.60
2022-07-31T17:31:15.206Z,20.59
2022-07-31T17:33:58.282Z,20.58
2022-07-31T17:36:28.970Z,20.59
2022-07-31T17:38:57.329Z,20.59
2022-07-31T17:41:25.564Z,20.60
2022-07-31T17:43:55.879Z,20.60
2022-07-31T17:46:29.913Z,20.58
2022-07-31T17:49:04.661Z,20.58
2022-07-31T17:51:31.396Z,20.57
2022-07-31T17:53:59.313Z,20.57
2022-07-31T17:56:28.650Z,20.46
2022-07-31T17:59:03.825Z,20.43
2022-07-31T18:01:30.616Z,20.42
2022-07-31T18:03:57.239Z,20.39
2022-07-31T18:06:23.791Z,20.38
2022-07-31T18:08:50.424Z,20.33
2022-07-31T18:11:17.241Z,20.35
2022-07-31T18:13:48.206Z,20.35
2022-07-31T18:16:16.459Z,20.28
2022-07-31T18:18:43.155Z,20.29
2022-07-31T18:21:09.987Z,20.23
2022-07-31T18:23:36.507Z,20.20
2022-07-31T18:26:10.480Z,20.15
2022-07-31T18:28:37.426Z,20.09
2022-07-31T18:31:04.149Z,20.08
2022-07-31T18:33:50.662Z,20.05
2022-07-31T18:36:17.719Z,19.99
2022-07-31T18:38:44.259Z,19.97
2022-07-31T18:41:10.871Z,19.91
2022-07-31T18:43:37.424Z,19.90
2022-07-31T18:46:03.948Z,19.87
2022-07-31T18:48:30.757Z,19.83
2022-07-31T18:51:04.458Z,19.81
2022-07-31T18:53:32.140Z,19.75
2022-07-31T18:55:58.680Z,19.71
2022-07-31T18:58:25.481Z,19.69
2022-07-31T19:00:55.229Z,19.65
2022-07-31T19:03:22.008Z,19.61
2022-07-31T19:05:50.109Z,19.58
2022-07-31T19:08:16.723Z,19.53
2022-07-31T19:10:43.249Z,19.50
2022-07-31T19:13:18.633Z,19.50
2022-07-31T19:15:47.481Z,19.45
2022-07-31T19:18:15.119Z,19.38
2022-07-31T19:20:56.157Z,19.38
2022-07-31T19:23:25.207Z,19.30
2022-07-31T19:26:03.052Z,19.32
2022-07-31T19:28:34.974Z,19.28
2022-07-31T19:31:01.680Z,19.22
2022-07-31T19:33:28.284Z,19.18
2022-07-31T19:36:00.899Z,19.14
2022-07-31T19:38:29.442Z,19.13
2022-07-31T19:40:56.008Z,19.13
2022-07-31T19:43:22.570Z,19.08
2022-07-31T19:46:02.697Z,19.04
2022-07-31T19:48:36.619Z,19.00
2022-07-31T19:51:03.782Z,18.93
2022-07-31T19:53:30.400Z,18.91
2022-07-31T19:55:57.420Z,18.88
2022-07-31T19:58:23.963Z,18.85
2022-07-31T20:00:50.573Z,18.76
2022-07-31T20:03:17.219Z,18.74
2022-07-31T20:05:43.946Z,18.64
2022-07-31T20:08:10.545Z,18.62
2022-07-31T20:10:37.225Z,18.56
2022-07-31T20:13:03.781Z,18.51
2022-07-31T20:15:51.047Z,18.48
2022-07-31T20:18:26.872Z,18.43
2022-07-31T20:20:57.211Z,18.40
2022-07-31T20:23:25.100Z,18.39
2022-07-31T20:25:51.871Z,18.35
2022-07-31T20:28:18.480Z,18.33
2022-07-31T20:30:45.178Z,18.32
2022-07-31T20:33:13.259Z,18.30
2022-07-31T20:35:49.102Z,18.28
2022-07-31T20:38:22.370Z,18.26
2022-07-31T20:40:53.432Z,18.24
2022-07-31T20:43:21.239Z,18.21
2022-07-31T20:45:48.251Z,18.21
2022-07-31T20:48:17.680Z,18.19
2022-07-31T20:50:44.366Z,18.17
2022-07-31T20:53:15.264Z,18.13
2022-07-31T20:55:41.846Z,18.15
2022-07-31T20:58:08.390Z,18.10
2022-07-31T21:00:38.133Z,18.10
2022-07-31T21:03:05.838Z,18.06
2022-07-31T21:05:32.668Z,18.01
2022-07-31T21:07:59.292Z,17.96
2022-07-31T21:10:29.529Z,17.90
2022-07-31T21:12:56.947Z,17.81
2022-07-31T21:15:42.394Z,17.79
2022-07-31T21:18:12.383Z,17.77
2022-07-31T21:20:51.156Z,17.73
2022-07-31T21:23:24.410Z,17.70
2022-07-31T21:25:52.780Z,17.70
2022-07-31T21:28:19.669Z,17.70
2022-07-31T21:30:46.591Z,17.69
2022-07-31T21:33:13.314Z,17.64
2022-07-31T21:35:40.637Z,17.64
2022-07-31T21:38:12.284Z,17.61
2022-07-31T21:40:39.664Z,17.63
2022-07-31T21:43:06.498Z,17.58
2022-07-31T21:45:51.035Z,17.57
2022-07-31T21:48:22.632Z,17.56
2022-07-31T21:50:49.227Z,17.55
2022-07-31T21:53:15.769Z,17.51
2022-07-31T21:55:42.386Z,17.48
2022-07-31T21:58:09.664Z,17.45
2022-07-31T22:00:37.361Z,17.46
2022-07-31T22:03:04.484Z,17.46
2022-07-31T22:05:50.261Z,17.45
2022-07-31T22:08:17.243Z,17.39
2022-07-31T22:10:43.973Z,17.36
2022-07-31T22:13:10.506Z,17.31
2022-07-31T22:15:59.053Z,17.25
2022-07-31T22:18:26.575Z,17.20
2022-07-31T22:20:53.816Z,17.19
2022-07-31T22:23:20.814Z,17.15
2022-07-31T22:25:49.104Z,17.15
2022-07-31T22:28:19.680Z,17.14
2022-07-31T22:30:46.451Z,17.10
2022-07-31T22:33:13.205Z,17.06
2022-07-31T22:35:40.878Z,17.01
2022-07-31T22:38:08.567Z,16.97
2022-07-31T22:40:35.380Z,16.92
2022-07-31T22:43:02.643Z,16.87
2022-07-31T22:45:30.172Z,16.84
2022-07-31T22:47:57.814Z,16.81
2022-07-31T22:50:25.236Z,16.73
2022-07-31T22:52:52.663Z,16.62
2022-07-31T22:55:19.199Z,16.55
2022-07-31T22:57:45.766Z,16.49
2022-07-31T23:00:14.689Z,16.46
2022-07-31T23:02:42.828Z,16.47
2022-07-31T23:05:10.225Z,16.46
2022-07-31T23:07:37.290Z,16.43
2022-07-31T23:10:06.055Z,16.38
2022-07-31T23:12:32.651Z,16.37
2022-07-31T23:14:59.235Z,16.37
2022-07-31T23:17:25.833Z,16.41
2022-07-31T23:19:54.418Z,16.39
2022-07-31T23:22:33.953Z,16.45
2022-07-31T23:25:07.498Z,16.36
2022-07-31T23:27:34.924Z,16.41
2022-07-31T23:30:01.573Z,16.41
2022-07-31T23:32:28.431Z,16.31
2022-07-31T23:34:55.240Z,16.40
2022-07-31T23:37:21.956Z,16.31
2022-07-31T23:39:48.489Z,16.34
2022-07-31T23:42:33.258Z,16.45
2022-07-31T23:44:59.806Z,16.31
2022-07-31T23:47:34.014Z,16.39
2022-07-31T23:50:15.302Z,16.56
2022-07-31T23:52:45.299Z,16.37
2022-07-31T23:55:12.268Z,16.37
2022-07-31T23:57:39.645Z,16.31
